Alberton, MT

12:55 AM MDT on September 22, 2014 (GMT -0600)
Downtown Alberton | Change Station
CLOSE
Current Station
Personal Weather Station
Location: Alberton, MT
Elevation: 3048 ft
Nearby Weather Stations

Elev 3048 ft 47.00 °N, 114.48 °W | Updated 5 seconds ago

Clear
Clear
57.0 °F
Feels Like 57.0 °F
N
0.0
Wind Variable Wind from ESE
Gusts 0.0 mph

Today
High -- | Low -- °F
--% Chance of Precip.
Yesterday
High -- | Low -- °F
Precip. -- in
7:24 AM 7:35 PM
Waning Crescent, 4% visible
Pressure 29.93 in
Visibility 10.0 miles
Clouds Clear
Dew Point 43 °F
Humidity 61%
Rainfall 0.00 in
Snow Depth Not available.
UV 0 out of 12
Pollen 6.40 out of 12
Air Quality Not available.
Flu Activity Not available.
METAR KMSO 220553Z AUTO 11003KT 10SM CLR 16/07 A2997 RMK AO2 SLP134 T01610072 10300 20156 53002

More Conditions Fewer Conditions

Pressure 29.93 in
Visibility 10.0 miles
Clouds Clear
Dew Point 43 °F
Humidity 61%
Rainfall 0.00 in
Snow Depth Not available.
UV 0 out of 12
Pollen 6.40 out of 12
Air Quality Not available.
Flu Activity Not available.
METAR KMSO 220553Z AUTO 11003KT 10SM CLR 16/07 A2997 RMK AO2 SLP134 T01610072 10300 20156 53002

More Conditions Fewer Conditions

10-Day Weather Forecast

Almanac

Astronomy

Sep. 22, 2014 Rise Set
Actual Time 7:24 AM MDT 7:35 PM MDT
Civil Twilight 6:54 AM MDT 8:05 PM MDT
Nautical Twilight 6:18 AM MDT 8:41 PM MDT
Astronomical Twilight 5:41 AM MDT 9:18 PM MDT
Moon 5:53 AM MDT 6:47 PM MDT
Length of Visible Light 13h 11m
Length of Day
12h 10m
Tomorrow will be 3m 20s shorter.
Waning Crescent, 4% of the Moon is Illuminated
Today
Waning Crescent
Sep 24
New
Oct 1
First Quarter
Oct 8
Full
Oct 15
Last Quarter

Today's Extremes

State Highs State Lows

Community

WunderPhotos

Upload Photos

1,755,392 photos uploaded!

Nearby

Snow Depth

Station Depth Elevation
White Mill 0 in 8700 ft
Crystal Lake 0 in 6050 ft
Bloody Dick 0 in 7550 ft
Tepee Creek 0 in 8000 ft
Banfield Mountain 0 in 5600 ft

Earthquake Activity

City Distance Mag. Time & Date
No recent earthquake activity has been reported nearby.
Minimum magnitude displayed is 2.5.

Coastal Water Temperatures

Place Temperature
No Stations Reporting

Nearby Weather Stations